createdAt,value
2023-01-27T00:00:54.943Z,-1.20
2023-01-27T00:03:24.378Z,-1.20
2023-01-27T00:05:52.039Z,-1.21
2023-01-27T00:08:20.258Z,-1.21
2023-01-27T00:10:47.977Z,-1.22
2023-01-27T00:13:15.565Z,-1.23
2023-01-27T00:15:43.148Z,-1.25
2023-01-27T00:18:10.763Z,-1.25
2023-01-27T00:20:38.335Z,-1.25
2023-01-27T00:23:05.902Z,-1.26
2023-01-27T00:25:33.515Z,-1.26
2023-01-27T00:28:01.083Z,-1.26
2023-01-27T00:30:28.664Z,-1.25
2023-01-27T00:32:56.244Z,-1.25
2023-01-27T00:35:24.140Z,-1.24
2023-01-27T00:37:51.770Z,-1.24
2023-01-27T00:40:19.390Z,-1.23
2023-01-27T00:42:47.001Z,-1.23
2023-01-27T00:45:14.669Z,-1.23
2023-01-27T00:47:42.245Z,-1.25
2023-01-27T00:50:10.762Z,-1.26
2023-01-27T00:52:38.541Z,-1.28
2023-01-27T00:55:07.153Z,-1.29
2023-01-27T00:57:34.729Z,-1.30
2023-01-27T01:00:02.588Z,-1.31
2023-01-27T01:02:30.290Z,-1.31
2023-01-27T01:04:58.320Z,-1.33
2023-01-27T01:07:25.935Z,-1.33
2023-01-27T01:09:53.518Z,-1.34
2023-01-27T01:12:21.217Z,-1.35
2023-01-27T01:14:48.777Z,-1.36
2023-01-27T01:17:16.414Z,-1.37
2023-01-27T01:19:44.027Z,-1.38
2023-01-27T01:22:11.599Z,-1.39
2023-01-27T01:24:39.156Z,-1.40
2023-01-27T01:27:06.711Z,-1.41
2023-01-27T01:29:34.310Z,-1.40
2023-01-27T01:32:01.913Z,-1.42
2023-01-27T01:34:29.505Z,-1.42
2023-01-27T01:36:57.058Z,-1.43
2023-01-27T01:39:24.623Z,-1.43
2023-01-27T01:41:52.210Z,-1.44
2023-01-27T01:44:25.341Z,-1.45
2023-01-27T01:46:53.112Z,-1.46
2023-01-27T01:49:26.257Z,-1.47
2023-01-27T01:52:00.247Z,-1.48
2023-01-27T01:54:33.391Z,-1.49
2023-01-27T01:57:10.801Z,-1.50
2023-01-27T01:59:45.815Z,-1.51
2023-01-27T02:02:19.723Z,-1.53
2023-01-27T02:04:56.264Z,-1.53
2023-01-27T02:07:38.786Z,-1.56
2023-01-27T02:10:06.673Z,-1.58
2023-01-27T02:12:34.267Z,-1.59
2023-01-27T02:15:01.889Z,-1.59
2023-01-27T02:17:29.566Z,-1.59
2023-01-27T02:20:12.131Z,-1.61
2023-01-27T02:22:47.506Z,-1.62
2023-01-27T02:25:29.819Z,-1.62
2023-01-27T02:27:57.410Z,-1.60
2023-01-27T02:30:25.222Z,-1.58
2023-01-27T02:32:52.916Z,-1.58
2023-01-27T02:35:27.639Z,-1.56
2023-01-27T02:37:57.548Z,-1.55
2023-01-27T02:40:27.152Z,-1.56
2023-01-27T02:42:57.134Z,-1.56
2023-01-27T02:45:24.921Z,-1.57
2023-01-27T02:47:52.581Z,-1.59
2023-01-27T02:50:20.212Z,-1.60
2023-01-27T02:52:47.797Z,-1.59
2023-01-27T02:55:15.482Z,-1.60
2023-01-27T02:57:43.101Z,-1.59
2023-01-27T03:00:11.459Z,-1.59
2023-01-27T03:02:39.291Z,-1.59
2023-01-27T03:05:07.218Z,-1.62
2023-01-27T03:07:34.782Z,-1.64
2023-01-27T03:10:02.325Z,-1.64
2023-01-27T03:12:29.931Z,-1.65
2023-01-27T03:14:57.511Z,-1.65
2023-01-27T03:17:25.074Z,-1.65
2023-01-27T03:19:52.714Z,-1.65
2023-01-27T03:22:20.343Z,-1.65
2023-01-27T03:24:47.904Z,-1.64
2023-01-27T03:27:15.469Z,-1.64
2023-01-27T03:29:43.051Z,-1.63
2023-01-27T03:32:10.608Z,-1.63
2023-01-27T03:34:38.190Z,-1.63
2023-01-27T03:37:05.838Z,-1.62
2023-01-27T03:39:33.445Z,-1.61
2023-01-27T03:42:01.010Z,-1.60
2023-01-27T03:44:28.597Z,-1.60
2023-01-27T03:46:56.297Z,-1.60
2023-01-27T03:49:23.996Z,-1.59
2023-01-27T03:51:51.756Z,-1.58
2023-01-27T03:54:19.332Z,-1.57
2023-01-27T03:56:46.890Z,-1.56
2023-01-27T03:59:14.781Z,-1.55
2023-01-27T04:01:42.420Z,-1.54
2023-01-27T04:04:11.315Z,-1.54
2023-01-27T04:06:41.125Z,-1.54
2023-01-27T04:09:10.061Z,-1.53
2023-01-27T04:11:37.704Z,-1.52
2023-01-27T04:14:06.604Z,-1.52
2023-01-27T04:16:34.905Z,-1.53
2023-01-27T04:19:04.542Z,-1.55
2023-01-27T04:21:32.335Z,-1.57
2023-01-27T04:24:00.491Z,-1.60
2023-01-27T04:26:28.920Z,-1.63
2023-01-27T04:28:56.548Z,-1.67
2023-01-27T04:31:24.119Z,-1.71
2023-01-27T04:33:51.806Z,-1.76
2023-01-27T04:36:19.375Z,-1.83
2023-01-27T04:38:46.944Z,-1.90
2023-01-27T04:41:14.492Z,-1.98
2023-01-27T04:43:42.011Z,-2.05
2023-01-27T04:46:09.698Z,-2.11
2023-01-27T04:48:37.337Z,-2.17
2023-01-27T04:51:05.026Z,-2.21
2023-01-27T04:53:32.612Z,-2.24
2023-01-27T04:56:05.919Z,-2.26
2023-01-27T04:58:33.769Z,-2.26
2023-01-27T05:01:01.317Z,-2.26
2023-01-27T05:03:28.896Z,-2.25
2023-01-27T05:05:56.553Z,-2.24
2023-01-27T05:08:24.162Z,-2.26
2023-01-27T05:10:51.728Z,-2.28
2023-01-27T05:13:19.314Z,-2.29
2023-01-27T05:15:47.045Z,-2.31
2023-01-27T05:18:15.165Z,-2.31
2023-01-27T05:20:42.704Z,-2.30
2023-01-27T05:23:10.212Z,-2.28
2023-01-27T05:25:37.832Z,-2.26
2023-01-27T05:28:05.421Z,-2.24
2023-01-27T05:30:33.033Z,-2.22
2023-01-27T05:33:00.632Z,-2.19
2023-01-27T05:35:28.187Z,-2.16
2023-01-27T05:37:55.759Z,-2.13
2023-01-27T05:40:23.330Z,-2.10
2023-01-27T05:42:54.270Z,-2.08
2023-01-27T05:45:21.953Z,-2.07
2023-01-27T05:47:50.551Z,-2.07
2023-01-27T05:50:18.456Z,-2.04
2023-01-27T05:52:46.115Z,-2.03
2023-01-27T05:55:14.064Z,-2.02
2023-01-27T05:57:41.867Z,-2.01
2023-01-27T06:00:10.139Z,-2.00
2023-01-27T06:02:37.780Z,-1.99
2023-01-27T06:05:05.829Z,-1.98
2023-01-27T06:07:33.379Z,-1.98
2023-01-27T06:10:00.893Z,-1.99
2023-01-27T06:12:28.450Z,-1.99
2023-01-27T06:14:55.986Z,-2.00
2023-01-27T06:17:23.526Z,-2.00
2023-01-27T06:19:51.053Z,-1.99
2023-01-27T06:22:18.563Z,-1.98
2023-01-27T06:24:46.072Z,-1.97
2023-01-27T06:27:13.581Z,-1.97
2023-01-27T06:29:41.088Z,-1.96
2023-01-27T06:32:08.672Z,-1.95
2023-01-27T06:34:36.300Z,-1.95
2023-01-27T06:37:04.007Z,-1.95
2023-01-27T06:39:31.568Z,-1.94
2023-01-27T06:41:59.203Z,-1.94
2023-01-27T06:44:26.748Z,-1.92
2023-01-27T06:46:54.287Z,-1.92
2023-01-27T06:49:22.060Z,-1.93
2023-01-27T06:51:49.638Z,-1.93
2023-01-27T06:54:17.360Z,-1.92
2023-01-27T06:56:44.972Z,-1.92
2023-01-27T06:59:12.637Z,-1.92
2023-01-27T07:01:40.204Z,-1.90
2023-01-27T07:04:07.862Z,-1.87
2023-01-27T07:06:35.484Z,-1.86
2023-01-27T07:09:03.043Z,-1.85
2023-01-27T07:11:30.608Z,-1.83
2023-01-27T07:13:58.128Z,-1.82
2023-01-27T07:16:25.934Z,-1.80
2023-01-27T07:18:53.498Z,-1.78
2023-01-27T07:21:21.132Z,-1.75
2023-01-27T07:23:48.674Z,-1.71
2023-01-27T07:26:24.915Z,-1.68
2023-01-27T07:28:53.107Z,-1.61
2023-01-27T07:31:20.736Z,-1.56
2023-01-27T07:33:48.400Z,-1.51
2023-01-27T07:36:15.972Z,-1.49
2023-01-27T07:38:43.576Z,-1.45
2023-01-27T07:41:11.169Z,-1.42
2023-01-27T07:43:38.768Z,-1.37
2023-01-27T07:46:06.520Z,-1.33
2023-01-27T07:48:34.137Z,-1.31
2023-01-27T07:51:01.703Z,-1.28
2023-01-27T07:53:29.251Z,-1.26
2023-01-27T07:55:59.625Z,-1.24
2023-01-27T07:58:27.213Z,-1.24
2023-01-27T08:00:54.874Z,-1.24
2023-01-27T08:03:25.296Z,-1.25
2023-01-27T08:05:52.877Z,-1.25
2023-01-27T08:08:20.443Z,-1.26
2023-01-27T08:10:47.979Z,-1.26
2023-01-27T08:13:15.756Z,-1.27
2023-01-27T08:15:43.435Z,-1.28
2023-01-27T08:18:10.985Z,-1.28
2023-01-27T08:20:38.580Z,-1.29
2023-01-27T08:23:06.113Z,-1.28
2023-01-27T08:25:33.770Z,-1.28
2023-01-27T08:28:01.350Z,-1.27
2023-01-27T08:30:28.940Z,-1.25
2023-01-27T08:32:56.501Z,-1.21
2023-01-27T08:35:24.201Z,-1.18
2023-01-27T08:37:51.816Z,-1.16
2023-01-27T08:40:19.375Z,-1.14
2023-01-27T08:42:49.443Z,-1.12
2023-01-27T08:45:17.139Z,-1.08
2023-01-27T08:47:44.775Z,-1.00
2023-01-27T08:50:12.862Z,-0.90
2023-01-27T08:52:41.015Z,-0.79
2023-01-27T08:55:08.759Z,-0.67
2023-01-27T08:57:37.251Z,-0.56
2023-01-27T09:00:11.197Z,-0.47
2023-01-27T09:02:38.981Z,-0.38
2023-01-27T09:05:06.796Z,-0.29
2023-01-27T09:07:34.373Z,-0.20
2023-01-27T09:10:14.099Z,-0.13
2023-01-27T09:12:47.841Z,-0.08
2023-01-27T09:15:15.527Z,-0.05
2023-01-27T09:17:43.175Z,-0.03
2023-01-27T09:20:12.139Z,-0.03
2023-01-27T09:22:41.095Z,-0.04
2023-01-27T09:25:14.801Z,-0.06
2023-01-27T09:27:43.507Z,-0.12
2023-01-27T09:30:13.759Z,-0.15
2023-01-27T09:32:42.237Z,-0.21
2023-01-27T09:35:10.286Z,-0.25
2023-01-27T09:37:44.962Z,-0.29
2023-01-27T09:40:38.576Z,-0.33
2023-01-27T09:43:24.752Z,-0.33
2023-01-27T09:46:23.136Z,-0.32
2023-01-27T09:49:18.349Z,-0.32
2023-01-27T09:52:23.387Z,-0.31
2023-01-27T09:55:11.857Z,-0.32
2023-01-27T09:57:51.973Z,-0.30
2023-01-27T10:00:31.404Z,-0.30
2023-01-27T10:03:04.757Z,-0.31
2023-01-27T10:05:47.871Z,-0.29
2023-01-27T10:08:50.801Z,-0.27
2023-01-27T10:11:58.028Z,-0.26
2023-01-27T10:14:38.834Z,-0.23
2023-01-27T10:17:40.958Z,-0.20
2023-01-27T10:20:26.846Z,-0.19
2023-01-27T10:22:54.395Z,-0.17
2023-01-27T10:25:39.525Z,-0.15
2023-01-27T10:28:13.110Z,-0.15
2023-01-27T10:30:51.178Z,-0.14
2023-01-27T10:33:28.390Z,-0.11
2023-01-27T10:36:03.501Z,-0.08
2023-01-27T10:38:41.050Z,-0.06
2023-01-27T10:41:27.392Z,-0.06
2023-01-27T10:44:16.595Z,-0.02
2023-01-27T10:46:44.056Z,0.00
2023-01-27T10:49:14.319Z,0.02
2023-01-27T10:51:52.902Z,0.03
2023-01-27T10:54:45.832Z,0.06
2023-01-27T10:57:37.084Z,0.12
2023-01-27T11:03:22.200Z,0.46
2023-01-27T11:05:56.582Z,0.63
2023-01-27T11:08:31.920Z,0.79
2023-01-27T11:11:03.598Z,0.96
2023-01-27T11:13:32.470Z,1.06
2023-01-27T11:16:00.884Z,1.15
2023-01-27T11:18:30.544Z,1.23
2023-01-27T11:21:12.345Z,1.30
2023-01-27T11:23:43.316Z,1.36
2023-01-27T11:26:25.828Z,1.39
2023-01-27T11:29:17.640Z,1.36
2023-01-27T11:32:08.414Z,1.26
2023-01-27T11:34:45.894Z,1.13
2023-01-27T11:37:24.501Z,1.01
2023-01-27T11:39:52.149Z,0.95
2023-01-27T11:42:19.818Z,0.89
2023-01-27T11:44:51.196Z,0.85
2023-01-27T11:47:27.279Z,0.81
2023-01-27T11:49:57.475Z,0.80
2023-01-27T11:52:27.952Z,0.82
2023-01-27T11:54:55.414Z,0.82
2023-01-27T11:57:25.716Z,0.82
2023-01-27T12:00:19.785Z,0.83
2023-01-27T12:03:03.453Z,0.81
2023-01-27T12:05:34.635Z,0.80
2023-01-27T12:08:05.107Z,0.81
2023-01-27T12:10:37.012Z,0.78
2023-01-27T12:13:15.058Z,0.72
2023-01-27T12:15:51.377Z,0.66
2023-01-27T12:18:19.439Z,0.62
2023-01-27T12:20:56.563Z,0.62
2023-01-27T12:23:29.488Z,0.62
2023-01-27T12:26:02.612Z,0.60
2023-01-27T12:28:39.014Z,0.59
2023-01-27T12:31:18.045Z,0.59
2023-01-27T12:33:56.275Z,0.60
2023-01-27T12:36:24.874Z,0.60
2023-01-27T12:38:55.617Z,0.60
2023-01-27T12:41:27.132Z,0.58
2023-01-27T12:43:58.428Z,0.59
2023-01-27T12:46:28.269Z,0.59
2023-01-27T12:49:12.779Z,0.57
2023-01-27T12:51:51.063Z,0.55
2023-01-27T12:54:21.470Z,0.53
2023-01-27T12:56:51.855Z,0.49
2023-01-27T12:59:21.191Z,0.47
2023-01-27T13:02:18.013Z,0.46
2023-01-27T13:04:58.801Z,0.45
2023-01-27T13:07:32.026Z,0.45
2023-01-27T13:10:03.752Z,0.47
2023-01-27T13:12:48.735Z,0.48
2023-01-27T13:15:28.713Z,0.46
2023-01-27T13:18:11.677Z,0.43
2023-01-27T13:20:50.828Z,0.41
2023-01-27T13:23:37.355Z,0.40
2023-01-27T13:26:04.901Z,0.39
2023-01-27T13:28:57.077Z,0.36
2023-01-27T13:31:42.882Z,0.35
2023-01-27T13:34:33.458Z,0.33
2023-01-27T13:37:09.921Z,0.33
2023-01-27T13:39:54.880Z,0.32
2023-01-27T13:42:33.350Z,0.29
2023-01-27T13:45:13.023Z,0.26
2023-01-27T13:47:50.931Z,0.24
2023-01-27T13:50:28.446Z,0.22
2023-01-27T13:52:58.753Z,0.20
2023-01-27T13:55:44.685Z,0.19
2023-01-27T13:58:46.094Z,0.16
2023-01-27T14:01:34.965Z,0.13
2023-01-27T14:04:41.351Z,0.11
2023-01-27T14:07:26.410Z,0.09
2023-01-27T14:10:27.844Z,0.08
2023-01-27T14:13:26.243Z,0.06
2023-01-27T14:16:36.384Z,0.03
2023-01-27T14:19:30.647Z,0.01
2023-01-27T14:22:31.255Z,-0.03
2023-01-27T14:25:18.098Z,-0.05
2023-01-27T14:28:01.723Z,-0.06
2023-01-27T14:30:36.717Z,-0.09
2023-01-27T14:33:09.896Z,-0.13
2023-01-27T14:35:44.929Z,-0.17
2023-01-27T14:38:42.744Z,-0.19
2023-01-27T14:41:12.876Z,-0.21
2023-01-27T14:44:03.075Z,-0.25
2023-01-27T14:46:42.501Z,-0.29
2023-01-27T14:49:44.070Z,-0.31
2023-01-27T14:52:43.874Z,-0.35
2023-01-27T14:55:29.398Z,-0.39
2023-01-27T14:58:18.287Z,-0.41
2023-01-27T15:01:14.114Z,-0.43
2023-01-27T15:03:50.756Z,-0.45
2023-01-27T15:06:44.416Z,-0.46
2023-01-27T15:09:27.975Z,-0.48
2023-01-27T15:12:20.290Z,-0.50
2023-01-27T15:15:13.124Z,-0.53
2023-01-27T15:18:14.962Z,-0.54
2023-01-27T15:21:11.642Z,-0.56
2023-01-27T15:24:07.248Z,-0.58
2023-01-27T15:26:37.494Z,-0.60
2023-01-27T15:29:05.818Z,-0.60
2023-01-27T15:34:24.715Z,-0.61
2023-01-27T15:40:03.910Z,-0.64
2023-01-27T15:45:46.481Z,-0.69
2023-01-27T15:48:19.428Z,-0.71
2023-01-27T15:51:02.936Z,-0.72
2023-01-27T15:53:34.406Z,-0.73
2023-01-27T15:59:05.059Z,-0.76
2023-01-27T16:04:28.724Z,-0.77
2023-01-27T16:07:02.854Z,-0.78
2023-01-27T16:09:36.605Z,-0.80
2023-01-27T16:12:32.024Z,-0.80
2023-01-27T16:15:21.518Z,-0.82
2023-01-27T16:18:06.213Z,-0.84
2023-01-27T16:23:52.768Z,-0.87
2023-01-27T16:29:20.601Z,-0.88
2023-01-27T16:32:01.043Z,-0.88
2023-01-27T16:34:35.652Z,-0.88
2023-01-27T16:37:28.616Z,-0.88
2023-01-27T16:40:03.866Z,-0.89
2023-01-27T16:42:40.889Z,-0.88
2023-01-27T16:48:15.206Z,-0.89
2023-01-27T16:50:44.019Z,-0.90
2023-01-27T16:53:18.709Z,-0.92
2023-01-27T16:56:05.515Z,-0.93
2023-01-27T16:58:45.508Z,-0.94
2023-01-27T17:01:27.901Z,-0.95
2023-01-27T17:06:44.085Z,-0.96
2023-01-27T17:12:40.312Z,-0.96
2023-01-27T17:15:28.467Z,-0.97
2023-01-27T17:17:57.775Z,-0.98
2023-01-27T17:20:34.454Z,-1.00
2023-01-27T17:23:07.431Z,-1.00
2023-01-27T17:25:37.948Z,-1.02
2023-01-27T17:30:43.338Z,-1.04
2023-01-27T17:33:20.567Z,-1.05
2023-01-27T17:35:53.576Z,-1.06
2023-01-27T17:38:23.246Z,-1.06
2023-01-27T17:43:48.990Z,-1.05
2023-01-27T17:49:04.915Z,-1.05
2023-01-27T17:51:39.854Z,-1.03
2023-01-27T17:54:20.421Z,-1.04
2023-01-27T17:56:52.075Z,-1.04
2023-01-27T18:02:30.345Z,-1.04
2023-01-27T18:07:30.788Z,-1.04
2023-01-27T18:09:58.404Z,-1.04
2023-01-27T18:12:35.359Z,-1.04
2023-01-27T18:15:37.343Z,-1.04
2023-01-27T18:18:29.277Z,-1.04
2023-01-27T18:21:09.391Z,-1.05
2023-01-27T18:26:38.368Z,-1.07
2023-01-27T18:29:15.039Z,-1.09
2023-01-27T18:31:55.888Z,-1.10
2023-01-27T18:34:32.644Z,-1.11
2023-01-27T18:37:24.197Z,-1.12
2023-01-27T18:39:52.047Z,-1.12
2023-01-27T18:45:14.559Z,-1.13
2023-01-27T18:47:42.586Z,-1.13
2023-01-27T18:50:15.137Z,-1.13
2023-01-27T18:52:42.919Z,-1.13
2023-01-27T18:55:30.175Z,-1.14
2023-01-27T18:58:00.250Z,-1.14
2023-01-27T19:03:00.781Z,-1.16
2023-01-27T19:05:33.256Z,-1.17
2023-01-27T19:08:02.176Z,-1.17
2023-01-27T19:10:32.781Z,-1.18
2023-01-27T19:15:55.833Z,-1.22
2023-01-27T19:18:32.341Z,-1.25
2023-01-27T19:21:00.878Z,-1.27
2023-01-27T19:23:29.174Z,-1.29
2023-01-27T19:26:04.814Z,-1.31
2023-01-27T19:28:37.543Z,-1.34
2023-01-27T19:33:51.487Z,-1.40
2023-01-27T19:36:27.483Z,-1.42
2023-01-27T19:39:09.499Z,-1.44
2023-01-27T19:41:37.141Z,-1.45
2023-01-27T19:46:53.405Z,-1.44
2023-01-27T19:52:11.267Z,-1.44
2023-01-27T19:54:39.143Z,-1.44
2023-01-27T19:57:13.614Z,-1.45
2023-01-27T19:59:41.513Z,-1.45
2023-01-27T20:05:03.786Z,-1.47
2023-01-27T20:07:31.337Z,-1.49
2023-01-27T20:09:59.178Z,-1.51
2023-01-27T20:12:29.974Z,-1.52
2023-01-27T20:15:21.100Z,-1.54
2023-01-27T20:17:49.010Z,-1.54
2023-01-27T20:23:07.201Z,-1.55
2023-01-27T20:25:43.758Z,-1.56
2023-01-27T20:28:12.305Z,-1.56
2023-01-27T20:30:41.331Z,-1.55
2023-01-27T20:33:10.134Z,-1.58
2023-01-27T20:35:37.767Z,-1.58
2023-01-27T20:38:05.530Z,-1.59
2023-01-27T20:40:34.242Z,-1.58
2023-01-27T20:43:02.024Z,-1.58
2023-01-27T20:45:29.774Z,-1.59
2023-01-27T20:47:57.651Z,-1.60
2023-01-27T20:50:26.339Z,-1.61
2023-01-27T20:52:54.252Z,-1.61
2023-01-27T20:55:22.231Z,-1.62
2023-01-27T20:57:50.006Z,-1.61
2023-01-27T21:00:20.192Z,-1.62
2023-01-27T21:02:48.834Z,-1.64
2023-01-27T21:05:17.063Z,-1.64
2023-01-27T21:07:44.904Z,-1.64
2023-01-27T21:10:12.612Z,-1.63
2023-01-27T21:12:40.187Z,-1.63
2023-01-27T21:15:08.483Z,-1.62
2023-01-27T21:17:36.015Z,-1.61
2023-01-27T21:20:05.239Z,-1.60
2023-01-27T21:22:33.240Z,-1.59
2023-01-27T21:25:00.785Z,-1.56
2023-01-27T21:27:29.081Z,-1.56
2023-01-27T21:29:56.788Z,-1.53
2023-01-27T21:32:24.467Z,-1.52
2023-01-27T21:34:52.436Z,-1.53
2023-01-27T21:37:20.050Z,-1.53
2023-01-27T21:39:47.626Z,-1.51
2023-01-27T21:42:15.360Z,-1.52
2023-01-27T21:44:43.057Z,-1.52
2023-01-27T21:47:13.315Z,-1.52
2023-01-27T21:49:43.495Z,-1.50
2023-01-27T21:52:11.221Z,-1.50
2023-01-27T21:54:38.816Z,-1.50
2023-01-27T21:57:06.332Z,-1.50
2023-01-27T21:59:33.847Z,-1.50
2023-01-27T22:02:01.568Z,-1.49
2023-01-27T22:04:29.153Z,-1.49
2023-01-27T22:06:57.040Z,-1.49
2023-01-27T22:09:24.803Z,-1.50
2023-01-27T22:11:52.364Z,-1.51
2023-01-27T22:14:19.905Z,-1.50
2023-01-27T22:16:49.924Z,-1.50
2023-01-27T22:19:17.642Z,-1.51
2023-01-27T22:21:45.219Z,-1.51
2023-01-27T22:24:12.969Z,-1.52
2023-01-27T22:26:40.509Z,-1.53
2023-01-27T22:29:08.437Z,-1.55
2023-01-27T22:31:36.096Z,-1.55
2023-01-27T22:34:03.777Z,-1.57
2023-01-27T22:36:31.352Z,-1.57
2023-01-27T22:38:59.132Z,-1.58
2023-01-27T22:41:28.596Z,-1.57
2023-01-27T22:43:56.289Z,-1.57
2023-01-27T22:46:24.330Z,-1.57
2023-01-27T22:48:51.940Z,-1.57
2023-01-27T22:51:19.716Z,-1.58
2023-01-27T22:53:47.451Z,-1.58
2023-01-27T22:56:15.074Z,-1.58
2023-01-27T22:58:42.635Z,-1.59
2023-01-27T23:01:10.273Z,-1.60
2023-01-27T23:03:37.935Z,-1.59
2023-01-27T23:06:07.483Z,-1.58
2023-01-27T23:08:35.880Z,-1.58
2023-01-27T23:11:05.388Z,-1.57
2023-01-27T23:13:34.455Z,-1.57
2023-01-27T23:16:02.210Z,-1.58
2023-01-27T23:18:29.850Z,-1.58
2023-01-27T23:21:03.505Z,-1.58
2023-01-27T23:23:31.307Z,-1.59
2023-01-27T23:25:59.349Z,-1.59
2023-01-27T23:28:27.270Z,-1.58
2023-01-27T23:30:54.878Z,-1.59
2023-01-27T23:33:22.598Z,-1.59
2023-01-27T23:35:56.128Z,-1.58
2023-01-27T23:38:32.598Z,-1.57
2023-01-27T23:41:07.475Z,-1.57
2023-01-27T23:43:35.049Z,-1.58
2023-01-27T23:46:02.654Z,-1.58
2023-01-27T23:48:30.420Z,-1.58
2023-01-27T23:50:58.202Z,-1.59
2023-01-27T23:53:25.775Z,-1.59
2023-01-27T23:55:58.060Z,-1.58
2023-01-27T23:58:26.072Z,-1.59
